sensor_id;sensor_type;location;lat;lon;timestamp;pressure;altitude;pressure_sealevel;temperature;humidity
49473;BME280;67434;50.956;6.918;2023-05-22T00:01:23;100876.97;;;17.09;91.88
49473;BME280;67434;50.956;6.918;2023-05-22T00:03:51;100871.81;;;17.07;91.10
49473;BME280;67434;50.956;6.918;2023-05-22T00:06:17;100875.13;;;17.04;91.06
49473;BME280;67434;50.956;6.918;2023-05-22T00:08:42;100871.06;;;17.02;92.21
49473;BME280;67434;50.956;6.918;2023-05-22T00:11:08;100859.63;;;17.00;92.01
49473;BME280;67434;50.956;6.918;2023-05-22T00:13:33;100863.47;;;16.99;91.82
49473;BME280;67434;50.956;6.918;2023-05-22T00:15:59;100868.72;;;16.95;91.55
49473;BME280;67434;50.956;6.918;2023-05-22T00:18:24;100863.56;;;16.94;90.72
49473;BME280;67434;50.956;6.918;2023-05-22T00:20:51;100860.03;;;16.93;90.94
49473;BME280;67434;50.956;6.918;2023-05-22T00:23:17;100858.69;;;16.91;90.45
49473;BME280;67434;50.956;6.918;2023-05-22T00:25:43;100860.63;;;16.90;90.68
49473;BME280;67434;50.956;6.918;2023-05-22T00:28:10;100852.13;;;16.92;90.85
49473;BME280;67434;50.956;6.918;2023-05-22T00:30:35;100843.41;;;16.90;90.39
49473;BME280;67434;50.956;6.918;2023-05-22T00:33:01;100852.72;;;16.88;90.52
49473;BME280;67434;50.956;6.918;2023-05-22T00:35:26;100851.38;;;16.86;90.58
49473;BME280;67434;50.956;6.918;2023-05-22T00:37:51;100848.44;;;16.82;90.48
49473;BME280;67434;50.956;6.918;2023-05-22T00:40:17;100854.50;;;16.79;90.82
49473;BME280;67434;50.956;6.918;2023-05-22T00:42:43;100846.59;;;16.78;90.40
49473;BME280;67434;50.956;6.918;2023-05-22T00:45:10;100845.28;;;16.75;89.92
49473;BME280;67434;50.956;6.918;2023-05-22T00:47:35;100853.22;;;16.72;90.43
49473;BME280;67434;50.956;6.918;2023-05-22T00:50:02;100851.88;;;16.69;90.06
49473;BME280;67434;50.956;6.918;2023-05-22T00:52:27;100855.72;;;16.68;89.82
49473;BME280;67434;50.956;6.918;2023-05-22T00:54:53;100853.81;;;16.69;89.30
49473;BME280;67434;50.956;6.918;2023-05-22T00:57:19;100850.81;;;16.65;89.88
49473;BME280;67434;50.956;6.918;2023-05-22T00:59:47;100852.22;;;16.63;89.15
49473;BME280;67434;50.956;6.918;2023-05-22T01:02:13;100851.41;;;16.62;89.66
49473;BME280;67434;50.956;6.918;2023-05-22T01:04:45;100856.88;;;16.62;89.36
49473;BME280;67434;50.956;6.918;2023-05-22T01:07:15;100861.22;;;16.63;89.51
49473;BME280;67434;50.956;6.918;2023-05-22T01:09:42;100849.78;;;16.61;89.47
49473;BME280;67434;50.956;6.918;2023-05-22T01:12:23;100853.94;;;16.58;89.50
49473;BME280;67434;50.956;6.918;2023-05-22T01:15:02;100862.13;;;16.58;89.72
49473;BME280;67434;50.956;6.918;2023-05-22T01:20:31;100860.72;;;16.61;89.12
49473;BME280;67434;50.956;6.918;2023-05-22T01:28:41;100858.28;;;16.60;89.06
49473;BME280;67434;50.956;6.918;2023-05-22T01:31:18;100861.00;;;16.60;89.14
49473;BME280;67434;50.956;6.918;2023-05-22T01:33:47;100855.25;;;16.61;89.10
49473;BME280;67434;50.956;6.918;2023-05-22T01:36:19;100859.59;;;16.62;89.24
49473;BME280;67434;50.956;6.918;2023-05-22T01:38:47;100854.97;;;16.63;89.08
49473;BME280;67434;50.956;6.918;2023-05-22T01:41:13;100861.75;;;16.65;88.69
49473;BME280;67434;50.956;6.918;2023-05-22T01:43:41;100862.28;;;16.67;88.52
49473;BME280;67434;50.956;6.918;2023-05-22T01:46:07;100859.00;;;16.65;88.89
49473;BME280;67434;50.956;6.918;2023-05-22T01:48:32;100853.03;;;16.63;89.10
49473;BME280;67434;50.956;6.918;2023-05-22T01:51:02;100850.91;;;16.60;89.51
49473;BME280;67434;50.956;6.918;2023-05-22T01:53:33;100844.72;;;16.54;89.75
49473;BME280;67434;50.956;6.918;2023-05-22T01:56:14;100846.69;;;16.49;90.66
49473;BME280;67434;50.956;6.918;2023-05-22T01:59:05;100846.78;;;16.44;90.76
49473;BME280;67434;50.956;6.918;2023-05-22T02:01:32;100841.09;;;16.40;90.81
49473;BME280;67434;50.956;6.918;2023-05-22T02:04:00;100840.06;;;16.36;91.01
49473;BME280;67434;50.956;6.918;2023-05-22T02:06:28;100837.88;;;16.33;91.06
49473;BME280;67434;50.956;6.918;2023-05-22T02:08:56;100841.19;;;16.30;91.06
49473;BME280;67434;50.956;6.918;2023-05-22T02:11:24;100842.59;;;16.27;91.27
49473;BME280;67434;50.956;6.918;2023-05-22T02:13:52;100842.59;;;16.27;91.55
49473;BME280;67434;50.956;6.918;2023-05-22T02:16:18;100840.75;;;16.23;91.54
49473;BME280;67434;50.956;6.918;2023-05-22T02:18:45;100842.16;;;16.20;91.31
49473;BME280;67434;50.956;6.918;2023-05-22T02:21:11;100840.53;;;16.19;91.96
49473;BME280;67434;50.956;6.918;2023-05-22T02:23:36;100840.81;;;16.18;92.08
49473;BME280;67434;50.956;6.918;2023-05-22T02:26:03;100842.22;;;16.15;92.11
49473;BME280;67434;50.956;6.918;2023-05-22T02:28:29;100845.22;;;16.14;91.94
49473;BME280;67434;50.956;6.918;2023-05-22T02:30:54;100839.78;;;16.14;92.04
49473;BME280;67434;50.956;6.918;2023-05-22T02:33:20;100834.63;;;16.12;92.36
49473;BME280;67434;50.956;6.918;2023-05-22T02:35:45;100838.44;;;16.11;92.27
49473;BME280;67434;50.956;6.918;2023-05-22T02:38:11;100838.44;;;16.11;92.29
49473;BME280;67434;50.956;6.918;2023-05-22T02:40:36;100837.63;;;16.11;92.40
49473;BME280;67434;50.956;6.918;2023-05-22T02:43:02;100843.91;;;16.11;92.20
49473;BME280;67434;50.956;6.918;2023-05-22T02:45:33;100835.19;;;16.09;92.25
49473;BME280;67434;50.956;6.918;2023-05-22T02:47:58;100834.69;;;16.07;91.84
49473;BME280;67434;50.956;6.918;2023-05-22T02:50:26;100831.94;;;16.07;92.27
49473;BME280;67434;50.956;6.918;2023-05-22T02:52:51;100831.44;;;16.05;91.93
49473;BME280;67434;50.956;6.918;2023-05-22T02:55:16;100834.16;;;16.05;92.04
49473;BME280;67434;50.956;6.918;2023-05-22T02:57:42;100832.00;;;16.02;92.11
49473;BME280;67434;50.956;6.918;2023-05-22T03:00:07;100818.66;;;16.01;92.09
49473;BME280;67434;50.956;6.918;2023-05-22T03:02:36;100819.50;;;16.01;92.62
49473;BME280;67434;50.956;6.918;2023-05-22T03:05:06;100825.22;;;16.00;92.31
49473;BME280;67434;50.956;6.918;2023-05-22T03:07:32;100816.78;;;15.96;92.25
49473;BME280;67434;50.956;6.918;2023-05-22T03:09:58;100821.13;;;15.97;92.81
49473;BME280;67434;50.956;6.918;2023-05-22T03:12:24;100816.78;;;15.96;93.00
49473;BME280;67434;50.956;6.918;2023-05-22T03:14:50;100821.72;;;15.94;93.18
49473;BME280;67434;50.956;6.918;2023-05-22T03:17:15;100815.47;;;15.93;93.24
49473;BME280;67434;50.956;6.918;2023-05-22T03:19:40;100817.97;;;15.90;93.44
49473;BME280;67434;50.956;6.918;2023-05-22T03:22:06;100815.81;;;15.87;93.94
49473;BME280;67434;50.956;6.918;2023-05-22T03:24:31;100817.50;;;15.83;94.01
49473;BME280;67434;50.956;6.918;2023-05-22T03:26:58;100810.19;;;15.78;93.64
49473;BME280;67434;50.956;6.918;2023-05-22T03:29:26;100820.81;;;15.80;94.26
49473;BME280;67434;50.956;6.918;2023-05-22T03:31:53;100815.94;;;15.77;94.77
49473;BME280;67434;50.956;6.918;2023-05-22T03:34:18;100817.84;;;15.76;95.18
49473;BME280;67434;50.956;6.918;2023-05-22T03:36:43;100818.44;;;15.73;95.41
49473;BME280;67434;50.956;6.918;2023-05-22T03:39:09;100828.50;;;15.73;95.19
49473;BME280;67434;50.956;6.918;2023-05-22T03:41:34;100826.38;;;15.70;95.18
49473;BME280;67434;50.956;6.918;2023-05-22T03:44:01;100826.66;;;15.68;94.57
49473;BME280;67434;50.956;6.918;2023-05-22T03:46:30;100826.94;;;15.67;94.60
49473;BME280;67434;50.956;6.918;2023-05-22T03:48:55;100827.75;;;15.67;94.54
49473;BME280;67434;50.956;6.918;2023-05-22T03:51:20;100830.50;;;15.67;94.35
49473;BME280;67434;50.956;6.918;2023-05-22T03:53:46;100826.94;;;15.67;94.37
49473;BME280;67434;50.956;6.918;2023-05-22T03:56:11;100838.13;;;15.65;93.79
49473;BME280;67434;50.956;6.918;2023-05-22T03:58:37;100838.94;;;15.66;94.38
49473;BME280;67434;50.956;6.918;2023-05-22T04:01:02;100841.69;;;15.66;93.98
49473;BME280;67434;50.956;6.918;2023-05-22T04:03:28;100847.94;;;15.66;94.53
49473;BME280;67434;50.956;6.918;2023-05-22T04:05:53;100841.69;;;15.66;94.26
49473;BME280;67434;50.956;6.918;2023-05-22T04:08:19;100840.06;;;15.65;93.89
49473;BME280;67434;50.956;6.918;2023-05-22T04:10:44;100840.06;;;15.65;93.92
49473;BME280;67434;50.956;6.918;2023-05-22T04:13:16;100848.53;;;15.63;93.66
49473;BME280;67434;50.956;6.918;2023-05-22T04:15:42;100844.97;;;15.62;93.23
49473;BME280;67434;50.956;6.918;2023-05-22T04:18:11;100854.25;;;15.61;92.92
49473;BME280;67434;50.956;6.918;2023-05-22T04:20:36;100859.16;;;15.59;92.46
49473;BME280;67434;50.956;6.918;2023-05-22T04:23:02;100867.31;;;15.59;92.22
49473;BME280;67434;50.956;6.918;2023-05-22T04:25:27;100870.06;;;15.59;92.27
49473;BME280;67434;50.956;6.918;2023-05-22T04:27:54;100867.31;;;15.59;91.53
49473;BME280;67434;50.956;6.918;2023-05-22T04:30:19;100864.59;;;15.59;92.10
49473;BME280;67434;50.956;6.918;2023-05-22T04:32:46;100871.69;;;15.60;91.73
49473;BME280;67434;50.956;6.918;2023-05-22T04:35:11;100867.88;;;15.61;91.64
49473;BME280;67434;50.956;6.918;2023-05-22T04:37:38;100875.19;;;15.66;91.50
49473;BME280;67434;50.956;6.918;2023-05-22T04:40:10;100876.53;;;15.69;91.49
49473;BME280;67434;50.956;6.918;2023-05-22T04:42:39;100869.69;;;15.71;91.06
49473;BME280;67434;50.956;6.918;2023-05-22T04:45:07;100877.88;;;15.71;90.83
49473;BME280;67434;50.956;6.918;2023-05-22T04:47:32;100869.75;;;15.66;90.73
49473;BME280;67434;50.956;6.918;2023-05-22T04:49:58;100869.75;;;15.66;90.94
49473;BME280;67434;50.956;6.918;2023-05-22T04:52:25;100883.88;;;15.68;90.78
49473;BME280;67434;50.956;6.918;2023-05-22T04:54:50;100874.91;;;15.68;90.93
49473;BME280;67434;50.956;6.918;2023-05-22T04:57:19;100882.56;;;15.66;91.05
49473;BME280;67434;50.956;6.918;2023-05-22T04:59:45;100880.06;;;15.69;90.85
49473;BME280;67434;50.956;6.918;2023-05-22T05:02:12;100874.63;;;15.69;90.77
49473;BME280;67434;50.956;6.918;2023-05-22T05:04:37;100875.44;;;15.70;90.65
49473;BME280;67434;50.956;6.918;2023-05-22T05:07:03;100878.91;;;15.75;90.54
49473;BME280;67434;50.956;6.918;2023-05-22T05:09:29;100876.72;;;15.77;90.30
49473;BME280;67434;50.956;6.918;2023-05-22T05:11:54;100886.00;;;15.76;90.28
49473;BME280;67434;50.956;6.918;2023-05-22T05:14:20;100882.16;;;15.77;90.20
49473;BME280;67434;50.956;6.918;2023-05-22T05:16:45;100883.78;;;15.78;90.02
49473;BME280;67434;50.956;6.918;2023-05-22T05:19:11;100880.19;;;15.83;89.85
49473;BME280;67434;50.956;6.918;2023-05-22T05:21:37;100884.53;;;15.84;89.90
49473;BME280;67434;50.956;6.918;2023-05-22T05:24:03;100887.28;;;15.84;89.77
49473;BME280;67434;50.956;6.918;2023-05-22T05:26:30;100877.69;;;15.86;89.72
49473;BME280;67434;50.956;6.918;2023-05-22T05:28:56;100885.00;;;15.91;89.46
49473;BME280;67434;50.956;6.918;2023-05-22T05:31:21;100889.34;;;15.92;89.19
49473;BME280;67434;50.956;6.918;2023-05-22T05:33:48;100894.75;;;15.97;89.35
49473;BME280;67434;50.956;6.918;2023-05-22T05:36:14;100883.25;;;16.05;89.12
49473;BME280;67434;50.956;6.918;2023-05-22T05:38:40;100893.78;;;16.12;88.55
49473;BME280;67434;50.956;6.918;2023-05-22T05:41:06;100878.72;;;16.19;88.41
49473;BME280;67434;50.956;6.918;2023-05-22T05:43:31;100892.81;;;16.26;88.14
49473;BME280;67434;50.956;6.918;2023-05-22T05:45:57;100897.16;;;16.27;87.92
49473;BME280;67434;50.956;6.918;2023-05-22T05:48:22;100898.25;;;16.26;87.76
49473;BME280;67434;50.956;6.918;2023-05-22T05:50:47;100898.41;;;16.35;87.54
49473;BME280;67434;50.956;6.918;2023-05-22T05:53:13;100900.63;;;16.33;87.29
49473;BME280;67434;50.956;6.918;2023-05-22T05:55:38;100907.38;;;16.41;86.97
49473;BME280;67434;50.956;6.918;2023-05-22T05:58:03;100903.03;;;16.40;86.92
49473;BME280;67434;50.956;6.918;2023-05-22T06:00:29;100908.72;;;16.43;86.77
49473;BME280;67434;50.956;6.918;2023-05-22T06:02:54;100905.41;;;16.46;86.69
49473;BME280;67434;50.956;6.918;2023-05-22T06:05:20;100910.56;;;16.48;86.74
49473;BME280;67434;50.956;6.918;2023-05-22T06:07:46;100910.50;;;16.53;86.69
49473;BME280;67434;50.956;6.918;2023-05-22T06:10:13;100917.00;;;16.57;86.22
49473;BME280;67434;50.956;6.918;2023-05-22T06:12:38;100913.69;;;16.60;86.22
49473;BME280;67434;50.956;6.918;2023-05-22T06:15:04;100916.34;;;16.65;85.93
49473;BME280;67434;50.956;6.918;2023-05-22T06:17:31;100915.00;;;16.63;86.23
49473;BME280;67434;50.956;6.918;2023-05-22T06:19:57;100920.25;;;16.59;86.45
49473;BME280;67434;50.956;6.918;2023-05-22T06:22:23;100910.94;;;16.60;86.63
49473;BME280;67434;50.956;6.918;2023-05-22T06:24:58;100916.81;;;16.72;86.23
49473;BME280;67434;50.956;6.918;2023-05-22T06:27:24;100918.84;;;16.85;85.20
49473;BME280;67434;50.956;6.918;2023-05-22T06:29:52;100923.13;;;16.92;85.13
49473;BME280;67434;50.956;6.918;2023-05-22T06:32:17;100926.22;;;17.04;84.54
49473;BME280;67434;50.956;6.918;2023-05-22T06:34:46;100921.03;;;17.02;84.42
49473;BME280;67434;50.956;6.918;2023-05-22T06:37:12;100921.13;;;17.16;83.98
49473;BME280;67434;50.956;6.918;2023-05-22T06:39:38;100930.78;;;17.27;83.64
49473;BME280;67434;50.956;6.918;2023-05-22T06:42:04;100931.16;;;17.39;83.24
49473;BME280;67434;50.956;6.918;2023-05-22T06:44:30;100938.00;;;17.56;82.61
49473;BME280;67434;50.956;6.918;2023-05-22T06:46:56;100938.81;;;17.56;82.34
49473;BME280;67434;50.956;6.918;2023-05-22T06:49:21;100946.72;;;17.58;82.39
49473;BME280;67434;50.956;6.918;2023-05-22T06:51:47;100937.63;;;17.62;82.15
49473;BME280;67434;50.956;6.918;2023-05-22T06:54:12;100945.47;;;17.69;81.84
49473;BME280;67434;50.956;6.918;2023-05-22T06:56:41;100937.81;;;17.85;81.45
49473;BME280;67434;50.956;6.918;2023-05-22T06:59:09;100945.28;;;17.79;81.64
49473;BME280;67434;50.956;6.918;2023-05-22T07:01:34;100945.22;;;17.84;81.09
49473;BME280;67434;50.956;6.918;2023-05-22T07:04:00;100948.72;;;17.71;81.79
49473;BME280;67434;50.956;6.918;2023-05-22T07:06:26;100947.72;;;17.80;81.83
49473;BME280;67434;50.956;6.918;2023-05-22T07:08:52;100959.22;;;18.10;80.41
49473;BME280;67434;50.956;6.918;2023-05-22T07:11:17;100945.47;;;18.15;80.20
49473;BME280;67434;50.956;6.918;2023-05-22T07:13:42;100955.22;;;18.21;79.80
49473;BME280;67434;50.956;6.918;2023-05-22T07:16:08;100956.03;;;18.22;79.93
49473;BME280;67434;50.956;6.918;2023-05-22T07:18:33;100956.34;;;18.34;79.57
49473;BME280;67434;50.956;6.918;2023-05-22T07:20:58;100960.28;;;18.55;78.83
49473;BME280;67434;50.956;6.918;2023-05-22T07:23:24;100946.81;;;18.72;78.32
49473;BME280;67434;50.956;6.918;2023-05-22T07:25:49;100956.25;;;18.80;77.72
49473;BME280;67434;50.956;6.918;2023-05-22T07:28:15;100957.13;;;18.48;78.02
49473;BME280;67434;50.956;6.918;2023-05-22T07:30:40;100952.25;;;18.04;78.94
49473;BME280;67434;50.956;6.918;2023-05-22T07:33:05;100951.13;;;18.19;79.19
49473;BME280;67434;50.956;6.918;2023-05-22T07:35:31;100955.63;;;18.28;79.33
49473;BME280;67434;50.956;6.918;2023-05-22T07:37:56;100965.25;;;18.39;79.21
49473;BME280;67434;50.956;6.918;2023-05-22T07:40:22;100961.50;;;18.49;78.57
49473;BME280;67434;50.956;6.918;2023-05-22T07:42:47;100964.75;;;18.37;78.64
49473;BME280;67434;50.956;6.918;2023-05-22T07:45:13;100964.34;;;18.30;78.93
49473;BME280;67434;50.956;6.918;2023-05-22T07:47:38;100960.06;;;18.52;78.80
49473;BME280;67434;50.956;6.918;2023-05-22T07:50:04;100962.75;;;18.70;77.86
49473;BME280;67434;50.956;6.918;2023-05-22T07:52:30;100964.97;;;18.82;77.55
49473;BME280;67434;50.956;6.918;2023-05-22T07:54:59;100972.75;;;18.89;77.08
49473;BME280;67434;50.956;6.918;2023-05-22T07:57:25;100976.94;;;18.59;77.70
49473;BME280;67434;50.956;6.918;2023-05-22T07:59:50;100976.41;;;18.57;77.99
49473;BME280;67434;50.956;6.918;2023-05-22T08:02:17;100979.28;;;18.65;77.49
49473;BME280;67434;50.956;6.918;2023-05-22T08:04:42;100979.16;;;18.98;76.36
49473;BME280;67434;50.956;6.918;2023-05-22T08:07:08;100978.53;;;19.01;76.41
49473;BME280;67434;50.956;6.918;2023-05-22T08:09:34;100977.16;;;18.62;76.92
49473;BME280;67434;50.956;6.918;2023-05-22T08:12:00;100968.13;;;18.76;77.47
49473;BME280;67434;50.956;6.918;2023-05-22T08:14:25;100974.69;;;18.88;76.81
49473;BME280;67434;50.956;6.918;2023-05-22T08:16:50;100980.56;;;19.09;76.22
49473;BME280;67434;50.956;6.918;2023-05-22T08:19:16;100965.69;;;19.24;74.38
49473;BME280;67434;50.956;6.918;2023-05-22T08:21:41;100977.97;;;19.26;74.78
49473;BME280;67434;50.956;6.918;2023-05-22T08:24:06;100981.16;;;19.06;75.62
49473;BME280;67434;50.956;6.918;2023-05-22T08:26:32;100968.25;;;19.20;74.99
49473;BME280;67434;50.956;6.918;2023-05-22T08:29:00;100976.22;;;19.30;74.73
49473;BME280;67434;50.956;6.918;2023-05-22T08:31:26;100982.97;;;19.47;73.99
49473;BME280;67434;50.956;6.918;2023-05-22T08:33:53;100983.75;;;19.61;73.24
49473;BME280;67434;50.956;6.918;2023-05-22T08:36:20;100983.66;;;19.52;73.35
49473;BME280;67434;50.956;6.918;2023-05-22T08:38:47;100988.25;;;19.57;72.63
49473;BME280;67434;50.956;6.918;2023-05-22T08:41:13;100992.97;;;19.65;72.72
49473;BME280;67434;50.956;6.918;2023-05-22T08:43:40;100985.22;;;19.45;73.02
49473;BME280;67434;50.956;6.918;2023-05-22T08:46:05;100986.66;;;19.06;75.06
49473;BME280;67434;50.956;6.918;2023-05-22T08:48:33;100975.69;;;19.06;75.21
49473;BME280;67434;50.956;6.918;2023-05-22T08:51:02;100996.09;;;19.00;75.50
49473;BME280;67434;50.956;6.918;2023-05-22T08:53:32;100987.69;;;18.96;75.30
49473;BME280;67434;50.956;6.918;2023-05-22T08:55:58;100998.84;;;18.72;76.10
49473;BME280;67434;50.956;6.918;2023-05-22T08:58:24;100991.44;;;18.87;76.16
49473;BME280;67434;50.956;6.918;2023-05-22T09:00:51;100984.03;;;18.73;76.60
49473;BME280;67434;50.956;6.918;2023-05-22T09:03:17;100992.47;;;18.63;76.72
49473;BME280;67434;50.956;6.918;2023-05-22T09:05:45;100994.69;;;18.89;76.13
49473;BME280;67434;50.956;6.918;2023-05-22T09:08:11;101000.28;;;18.97;75.38
49473;BME280;67434;50.956;6.918;2023-05-22T09:10:36;100998.03;;;18.99;75.09
49473;BME280;67434;50.956;6.918;2023-05-22T09:13:06;100997.63;;;19.06;75.22
49473;BME280;67434;50.956;6.918;2023-05-22T09:15:34;100997.72;;;19.01;74.86
49473;BME280;67434;50.956;6.918;2023-05-22T09:18:01;100997.41;;;19.02;74.98
49473;BME280;67434;50.956;6.918;2023-05-22T09:20:26;101006.97;;;18.78;75.65
49473;BME280;67434;50.956;6.918;2023-05-22T09:22:52;101006.75;;;18.74;75.54
49473;BME280;67434;50.956;6.918;2023-05-22T09:25:18;101000.47;;;19.01;74.71
49473;BME280;67434;50.956;6.918;2023-05-22T09:27:47;101001.63;;;19.22;73.98
49473;BME280;67434;50.956;6.918;2023-05-22T09:30:16;101002.22;;;19.33;73.60
49473;BME280;67434;50.956;6.918;2023-05-22T09:32:43;100995.22;;;19.27;73.25
49473;BME280;67434;50.956;6.918;2023-05-22T09:35:09;101006.88;;;19.32;73.71
49473;BME280;67434;50.956;6.918;2023-05-22T09:37:35;100999.72;;;19.09;73.86
49473;BME280;67434;50.956;6.918;2023-05-22T09:40:07;100997.88;;;19.18;73.45
49473;BME280;67434;50.956;6.918;2023-05-22T09:42:35;101004.88;;;19.24;72.28
49473;BME280;67434;50.956;6.918;2023-05-22T09:45:06;101003.25;;;19.23;72.18
49473;BME280;67434;50.956;6.918;2023-05-22T09:47:32;101010.22;;;19.29;72.57
49473;BME280;67434;50.956;6.918;2023-05-22T09:50:03;101007.41;;;19.21;73.04
49473;BME280;67434;50.956;6.918;2023-05-22T09:52:35;101007.50;;;19.29;72.99
49473;BME280;67434;50.956;6.918;2023-05-22T09:55:05;101010.38;;;19.11;73.83
49473;BME280;67434;50.956;6.918;2023-05-22T09:57:32;101007.91;;;19.36;72.60
49473;BME280;67434;50.956;6.918;2023-05-22T10:00:04;101005.25;;;19.31;73.09
